MET6204 - Chicago to London Heathrow

Boeing 747-400
G-FLEL - Fly UK
7 hrs 45 mins
3429 nm
Fly UK Codeshare - Daily

Departure

Departing from
Chicago (ORD)
Departure gate
Scheduled Departure
GMT 2310
Local 1710
METAR KORD 161227Z 01004KT 4SM -FZRA OVC045 01/M02 A3026 RMK AO2 RAB14E25FZRAB25 P0000 I1000 T00061017
TAF KORD 161129Z 1612/1718 07003KT 5SM -FZRAPL SCT020 OVC035 FM161300 07003KT 4SM -FZRA BR OVC010 FM161500 09006KT 2SM -SHRA BR SCT004 OVC008 FM162000 09008KT 1 1/2SM -SHRA BR OVC004 FM170100 10012KT 1SM SHRA BR OVC003 PROB30 1703/1705 1/2SM TSRA FG OVC003CB FM170600 VRB03KT 3/4SM -RADZ BR OVC003 FM171300 24010KT 2SM BR VCSH OVC007
  • No charts available

Arrival

Arriving at
London Heathrow (LHR)
Arrival gate
Terminal 3
Scheduled Arrival
GMT 0655
Local 0655
METAR EGLL 161220Z 11005KT 6000 -RA FEW005 SCT007 BKN015 05/05 Q1028 TEMPO BKN014
TAF TAF EGLL 161054Z 1612/1718 12003KT 7000 -RA SCT009 BKN016 TEMPO 1612/1618 4800 -RADZ BKN012 BECMG 1616/1619 9999 NSW PROB30 TEMPO 1703/1709 5000 BR BKN004

Route Map

Planning Resources

KORD DCT KUBBS J94 FNT T781 PESAC DCT YQB J560 YZV L600 ALKOB DCT BORUB DCT D264N DCT YR AR23 JC DCT HOIST DCT 5555N DCT 5553N DCT 5551N DCT 5549N DCT 5547N DCT 5545N DCT 5543N DCT 5541N DCT 5539N DCT 5537N DCT 5535N DCT 5533N DCT 5531N DCT 5529N DCT 5527N DCT 5525N DCT 5523N DCT 5521N DCT 5519N DCT 5517N DCT RESNO DCT 5513N DCT 5511N DCT MOLAK DCT NIPIT UP867 NATEB DCT RIBEL DCT NUGRA EGLL
RAYNR BRTMN DNIKA TAAYZ PETTY PECOK ASP YXI PQI/M084F350 PORTI NATT 47N050W/M084F360 NATT NETKI/N0486F350 CON/N0483F370 BAKUR UN546 STU UP2 NUMPO Y3 BEDEK OCK2F
RAYNR BRTMN DNIKA TAAYZ PETTY PECOK ASP YXI TAFFY PORTI NATV LIMRI NATV XETBO LODLA EVRIN UL607 NUMPO Y3 BEDEK OCK2F
ORD DCT PMM DCT ECK DCT YXI DCT BAREE N311A RIKAL/M085F370 NATT 56N020W/M085F380 NATT SOVED/M085F370 DCT NIBOG/N0488F370 DCT SOSIM UL28 PENIL UL10 HON BOVA4A
ORD6.PMM J94 ECK J546 YSO N210E YRI J568 YGP J572 YJT J581 YQX NAT_T SHA UG1 STU UP2 BEDEK OCK2F
Route:
OFP Layout:
Units:
Detailed Navlog:
ETOPS Planning:
Plan Stepclimbs:
Runway Analysis:
Include NOTAMS:
FIR NOTAMS:
Flight Maps:

Return Flights

MET6
Boeing 777-300ER
1430 GMT
MET8
Airbus A330-243
1645 GMT
MET10
Airbus A330-343
1900 GMT
MET6203 (Operated by Fly UK)
Boeing 747-400
1225 GMT

Popularity

Hub Current Bids PiReps this month Total PiReps
KMCI 0 0 0
KLAX 0 0 0
KBOS 0 0 0